FVCC weather

C.C. Strip
C.C. Strip, Mashonaland West Province, Zimbabwe

Public forecast

Using degrees Celsius for public forecast. Weather courtesy of forecast.io.

Closest aviation weather report (METAR) to C.C. Strip

Report is more than 2 hours old.

Closest report is Robert Gabriel Mugabe International Airport, 54.3 nm (100.7 km) ESE. Retrieved 2019/12/10 19:00 UTC (2 hours ago):

FVRG 101900Z 00000KT CAVOK 18/16 Q1018 NOSIG

Closest aviation forecast (TAF) to C.C. Strip

Forecast is more than 12 hours old.

Closest forecast is Robert Gabriel Mugabe International Airport, 54.3 nm (100.7 km) ESE. Retrieved 2019-12-10 00:00 UTC (21 hours ago):

TAF FVRG 092300Z 1000/1106 05007KT 9999 FEW030CB BKN080 PROB30 TEMPO 1000/1005 8000 -TSRA BECMG 1008/1010 FEW030CB BKN035 PROB30 TEMPO 1012/1018 5000 TSRA SCT008 BKN080 FEW025CB BECMG 1020/1022 8000 -TSRA TEMPO 1102/1106 9999 -RA